Startpagina
METAR-TAF:

METAR-TAF

Vliegvelden :

Luchthaven Sofia

Sofia, Bulgarije

breedte: 42-39N, lengte: 023-23E, hoogte: 586 m

Actueel weer

Dit bericht is 16 minuten geleden gemaakt, om 17:30 UTC
Wind 18 kt uit het westnoordwesten met uitschieters tot 30 kt, variërend tussen het westen en het noordwesten
Temperatuur 20°C
Vochtigheid 64%
Druk 1011 hPa
Zicht 10 km of meer
Verspreide wolken op 3700 ft
Gebroken wolken op 6500 ft

METAR: LBSF 181730Z 29018G30KT 260V320 9999 SCT037 BKN065 20/13 Q1011 NOSIG

Tijdstip: 20:46 (17:46 UTC)

Verwachting

Dit bericht is 46 minuten geleden gemaakt, om 17:00 UTC
Verwachting geldig van 18 om 18 UTC tot 19 om 18 UTC
Wind 14 kt uit het westnoordwesten
Zicht 10 km of meer
Verspreide wolken op 5000 ft
Kans 30% :
Tijdelijke
van 18 om 18 UTC tot 18 om 20 UTC
Zicht: 5000 m
Weinig wolken op 3000 ft, Cumulonimbus.
Gebroken wolken op 5000 ft
onweer, regen

TAF: LBSF 181700Z 1818/1918 29014KT 9999 SCT050 PROB30 TEMPO 1818/1820 5000 TSRA FEW030CB BKN050

Waarnemingen en weersverwachtingen van meer dan 4000 vliegvelden (METAR en TAF).

De beschikbare stations zijn de gele en rode punten op de kaart.

Ga met uw muis naar het station om de naam te zien.

Klik dan om waarnemingen en weersverwachtingen te zien.

kaart wijzigen: klik op de groene knoppen met een zwart kruis om in te zoomen, op de groene knop met een streepje om uit te zoomen of op de groene pijlen voor aangrenzende kaarten.


METAR-TAF: